Terminal Aerodrome Forecast
Issued by NWS Louisville, KY

Home | Current Version | Previous Version | Text Only | Print | Product List | Glossary On
Versions: 1 2 3 4 5 6 7 8 9 10 11 12 13 14
000
FTUS43 KLMK 011100 RRA
TAFSDF
TAF
KSDF 011141Z 0112/0218 19005KT 5SM -SHRA BR SCT020 OVC070
     FM011400 22006KT 4SM -RA BR BKN020
     FM011600 24005KT 4SM -RA BR BKN009
     FM012300 29005KT 4SM BR VCSH BKN009
     FM020900 33008KT P6SM SCT009 OVC015=

USA.gov is the U.S. government's official web portal to all federal, state and local government web resources and services.